sensor_id;sensor_type;location;lat;lon;timestamp;P1;durP1;ratioP1;P2;durP2;ratioP2
58472;SDS011;44775;51.564;5.460;2023-05-18T00:00:33;4.32;;;3.15;;
58472;SDS011;44775;51.564;5.460;2023-05-18T00:02:59;8.10;;;4.50;;
58472;SDS011;44775;51.564;5.460;2023-05-18T00:05:25;10.30;;;3.92;;
58472;SDS011;44775;51.564;5.460;2023-05-18T00:07:51;8.70;;;3.83;;
58472;SDS011;44775;51.564;5.460;2023-05-18T00:10:17;9.15;;;3.97;;
58472;SDS011;44775;51.564;5.460;2023-05-18T00:12:42;9.52;;;4.50;;
58472;SDS011;44775;51.564;5.460;2023-05-18T00:15:07;6.97;;;3.47;;
58472;SDS011;44775;51.564;5.460;2023-05-18T00:17:34;8.07;;;3.70;;
58472;SDS011;44775;51.564;5.460;2023-05-18T00:19:59;12.18;;;3.88;;
58472;SDS011;44775;51.564;5.460;2023-05-18T00:22:25;8.50;;;4.20;;
58472;SDS011;44775;51.564;5.460;2023-05-18T00:24:50;10.45;;;4.22;;
58472;SDS011;44775;51.564;5.460;2023-05-18T00:27:16;10.23;;;4.63;;
58472;SDS011;44775;51.564;5.460;2023-05-18T00:29:41;5.95;;;3.50;;
58472;SDS011;44775;51.564;5.460;2023-05-18T00:32:06;10.98;;;4.35;;
58472;SDS011;44775;51.564;5.460;2023-05-18T00:34:32;8.10;;;4.05;;
58472;SDS011;44775;51.564;5.460;2023-05-18T00:36:57;12.23;;;4.63;;
58472;SDS011;44775;51.564;5.460;2023-05-18T00:39:22;9.23;;;3.95;;
58472;SDS011;44775;51.564;5.460;2023-05-18T00:41:48;7.18;;;3.80;;
58472;SDS011;44775;51.564;5.460;2023-05-18T00:44:13;9.55;;;4.43;;
58472;SDS011;44775;51.564;5.460;2023-05-18T00:46:39;12.93;;;4.70;;
58472;SDS011;44775;51.564;5.460;2023-05-18T00:49:05;8.30;;;4.70;;
58472;SDS011;44775;51.564;5.460;2023-05-18T00:51:31;10.32;;;4.82;;
58472;SDS011;44775;51.564;5.460;2023-05-18T00:53:57;10.18;;;4.63;;
58472;SDS011;44775;51.564;5.460;2023-05-18T00:56:23;12.02;;;4.95;;
58472;SDS011;44775;51.564;5.460;2023-05-18T00:58:53;8.68;;;5.00;;
58472;SDS011;44775;51.564;5.460;2023-05-18T01:01:31;9.30;;;4.40;;
58472;SDS011;44775;51.564;5.460;2023-05-18T01:03:58;8.23;;;4.18;;
58472;SDS011;44775;51.564;5.460;2023-05-18T01:08:57;8.68;;;4.30;;
58472;SDS011;44775;51.564;5.460;2023-05-18T01:11:25;9.93;;;4.10;;
58472;SDS011;44775;51.564;5.460;2023-05-18T01:22:47;11.23;;;5.10;;
58472;SDS011;44775;51.564;5.460;2023-05-18T01:25:26;9.98;;;4.90;;
58472;SDS011;44775;51.564;5.460;2023-05-18T01:27:56;9.25;;;4.95;;
58472;SDS011;44775;51.564;5.460;2023-05-18T01:30:33;10.68;;;4.93;;
58472;SDS011;44775;51.564;5.460;2023-05-18T01:33:07;8.50;;;4.50;;
58472;SDS011;44775;51.564;5.460;2023-05-18T01:35:35;10.77;;;5.07;;
58472;SDS011;44775;51.564;5.460;2023-05-18T01:38:01;10.98;;;4.78;;
58472;SDS011;44775;51.564;5.460;2023-05-18T01:40:27;12.65;;;5.03;;
58472;SDS011;44775;51.564;5.460;2023-05-18T01:42:58;12.85;;;5.30;;
58472;SDS011;44775;51.564;5.460;2023-05-18T01:45:29;14.13;;;5.35;;
58472;SDS011;44775;51.564;5.460;2023-05-18T01:47:57;12.10;;;4.82;;
58472;SDS011;44775;51.564;5.460;2023-05-18T01:50:32;11.40;;;4.57;;
58472;SDS011;44775;51.564;5.460;2023-05-18T01:53:05;14.27;;;5.53;;
58472;SDS011;44775;51.564;5.460;2023-05-18T01:55:36;10.57;;;5.22;;
58472;SDS011;44775;51.564;5.460;2023-05-18T01:58:03;9.23;;;5.13;;
58472;SDS011;44775;51.564;5.460;2023-05-18T02:00:32;12.13;;;5.13;;
58472;SDS011;44775;51.564;5.460;2023-05-18T02:02:58;13.45;;;5.18;;
58472;SDS011;44775;51.564;5.460;2023-05-18T02:05:23;9.65;;;5.40;;
58472;SDS011;44775;51.564;5.460;2023-05-18T02:07:48;11.90;;;5.85;;
58472;SDS011;44775;51.564;5.460;2023-05-18T02:10:14;17.45;;;5.25;;
58472;SDS011;44775;51.564;5.460;2023-05-18T02:12:39;13.80;;;5.82;;
58472;SDS011;44775;51.564;5.460;2023-05-18T02:15:05;10.10;;;5.13;;
58472;SDS011;44775;51.564;5.460;2023-05-18T02:17:31;9.75;;;5.22;;
58472;SDS011;44775;51.564;5.460;2023-05-18T02:19:57;9.85;;;5.50;;
58472;SDS011;44775;51.564;5.460;2023-05-18T02:22:26;14.07;;;4.80;;
58472;SDS011;44775;51.564;5.460;2023-05-18T02:24:51;10.52;;;5.35;;
58472;SDS011;44775;51.564;5.460;2023-05-18T02:27:17;10.23;;;5.10;;
58472;SDS011;44775;51.564;5.460;2023-05-18T02:29:43;12.18;;;5.55;;
58472;SDS011;44775;51.564;5.460;2023-05-18T02:32:08;12.77;;;5.53;;
58472;SDS011;44775;51.564;5.460;2023-05-18T02:34:33;13.60;;;6.15;;
58472;SDS011;44775;51.564;5.460;2023-05-18T02:37:02;9.82;;;5.22;;
58472;SDS011;44775;51.564;5.460;2023-05-18T02:39:28;10.35;;;5.20;;
58472;SDS011;44775;51.564;5.460;2023-05-18T02:41:54;9.65;;;5.63;;
58472;SDS011;44775;51.564;5.460;2023-05-18T02:44:19;12.82;;;5.53;;
58472;SDS011;44775;51.564;5.460;2023-05-18T02:46:44;14.18;;;5.70;;
58472;SDS011;44775;51.564;5.460;2023-05-18T02:49:10;15.50;;;6.10;;
58472;SDS011;44775;51.564;5.460;2023-05-18T02:51:35;12.32;;;5.72;;
58472;SDS011;44775;51.564;5.460;2023-05-18T02:54:01;10.38;;;4.90;;
58472;SDS011;44775;51.564;5.460;2023-05-18T02:56:26;12.80;;;6.13;;
58472;SDS011;44775;51.564;5.460;2023-05-18T02:58:52;13.43;;;6.15;;
58472;SDS011;44775;51.564;5.460;2023-05-18T03:01:21;12.40;;;5.40;;
58472;SDS011;44775;51.564;5.460;2023-05-18T03:06:17;10.43;;;5.40;;
58472;SDS011;44775;51.564;5.460;2023-05-18T03:08:42;11.57;;;5.63;;
58472;SDS011;44775;51.564;5.460;2023-05-18T03:11:07;10.98;;;6.18;;
58472;SDS011;44775;51.564;5.460;2023-05-18T03:13:32;11.45;;;6.00;;
58472;SDS011;44775;51.564;5.460;2023-05-18T03:15:58;14.60;;;6.85;;
58472;SDS011;44775;51.564;5.460;2023-05-18T03:18:23;11.07;;;6.35;;
58472;SDS011;44775;51.564;5.460;2023-05-18T03:20:49;17.08;;;6.45;;
58472;SDS011;44775;51.564;5.460;2023-05-18T03:23:16;14.43;;;6.25;;
58472;SDS011;44775;51.564;5.460;2023-05-18T03:25:41;14.75;;;6.43;;
58472;SDS011;44775;51.564;5.460;2023-05-18T03:28:07;12.23;;;6.22;;
58472;SDS011;44775;51.564;5.460;2023-05-18T03:30:32;13.05;;;6.30;;
58472;SDS011;44775;51.564;5.460;2023-05-18T03:32:58;12.80;;;5.85;;
58472;SDS011;44775;51.564;5.460;2023-05-18T03:35:24;15.52;;;7.10;;
58472;SDS011;44775;51.564;5.460;2023-05-18T03:37:49;13.30;;;6.40;;
58472;SDS011;44775;51.564;5.460;2023-05-18T03:40:14;14.48;;;6.53;;
58472;SDS011;44775;51.564;5.460;2023-05-18T03:42:40;13.23;;;7.00;;
58472;SDS011;44775;51.564;5.460;2023-05-18T03:45:09;16.00;;;6.57;;
58472;SDS011;44775;51.564;5.460;2023-05-18T03:50:01;11.73;;;5.72;;
58472;SDS011;44775;51.564;5.460;2023-05-18T03:52:27;18.33;;;7.13;;
58472;SDS011;44775;51.564;5.460;2023-05-18T03:54:54;18.13;;;7.22;;
58472;SDS011;44775;51.564;5.460;2023-05-18T03:57:19;14.38;;;5.68;;
58472;SDS011;44775;51.564;5.460;2023-05-18T03:59:45;12.13;;;6.38;;
58472;SDS011;44775;51.564;5.460;2023-05-18T04:02:10;13.77;;;6.30;;
58472;SDS011;44775;51.564;5.460;2023-05-18T04:04:37;12.57;;;6.38;;
58472;SDS011;44775;51.564;5.460;2023-05-18T04:09:31;13.57;;;6.35;;
58472;SDS011;44775;51.564;5.460;2023-05-18T04:11:57;10.57;;;6.10;;
58472;SDS011;44775;51.564;5.460;2023-05-18T04:14:23;13.63;;;6.05;;
58472;SDS011;44775;51.564;5.460;2023-05-18T04:16:48;12.70;;;5.95;;
58472;SDS011;44775;51.564;5.460;2023-05-18T04:19:15;10.48;;;5.55;;
58472;SDS011;44775;51.564;5.460;2023-05-18T04:21:41;13.05;;;6.47;;
58472;SDS011;44775;51.564;5.460;2023-05-18T04:24:07;17.17;;;6.30;;
58472;SDS011;44775;51.564;5.460;2023-05-18T04:26:33;16.23;;;6.50;;
58472;SDS011;44775;51.564;5.460;2023-05-18T04:29:00;13.57;;;6.18;;
58472;SDS011;44775;51.564;5.460;2023-05-18T04:31:26;13.55;;;6.50;;
58472;SDS011;44775;51.564;5.460;2023-05-18T04:33:53;11.30;;;5.45;;
58472;SDS011;44775;51.564;5.460;2023-05-18T04:36:18;9.18;;;5.70;;
58472;SDS011;44775;51.564;5.460;2023-05-18T04:38:44;15.45;;;5.95;;
58472;SDS011;44775;51.564;5.460;2023-05-18T04:41:10;11.48;;;6.03;;
58472;SDS011;44775;51.564;5.460;2023-05-18T04:43:36;11.60;;;6.00;;
58472;SDS011;44775;51.564;5.460;2023-05-18T04:46:01;12.65;;;6.07;;
58472;SDS011;44775;51.564;5.460;2023-05-18T04:48:27;18.08;;;6.32;;
58472;SDS011;44775;51.564;5.460;2023-05-18T04:50:53;10.95;;;5.30;;
58472;SDS011;44775;51.564;5.460;2023-05-18T04:53:20;10.35;;;6.07;;
58472;SDS011;44775;51.564;5.460;2023-05-18T04:55:49;14.07;;;6.00;;
58472;SDS011;44775;51.564;5.460;2023-05-18T04:58:14;8.07;;;4.63;;
58472;SDS011;44775;51.564;5.460;2023-05-18T05:00:40;13.40;;;5.57;;
58472;SDS011;44775;51.564;5.460;2023-05-18T05:03:07;13.45;;;6.65;;
58472;SDS011;44775;51.564;5.460;2023-05-18T05:05:32;11.63;;;6.88;;
58472;SDS011;44775;51.564;5.460;2023-05-18T05:07:58;18.27;;;6.65;;
58472;SDS011;44775;51.564;5.460;2023-05-18T05:10:24;13.40;;;6.70;;
58472;SDS011;44775;51.564;5.460;2023-05-18T05:12:50;14.75;;;6.53;;
58472;SDS011;44775;51.564;5.460;2023-05-18T05:15:16;14.27;;;6.47;;
58472;SDS011;44775;51.564;5.460;2023-05-18T05:17:42;11.18;;;5.55;;
58472;SDS011;44775;51.564;5.460;2023-05-18T05:20:07;11.70;;;6.40;;
58472;SDS011;44775;51.564;5.460;2023-05-18T05:22:32;12.63;;;5.57;;
58472;SDS011;44775;51.564;5.460;2023-05-18T05:24:58;12.80;;;6.55;;
58472;SDS011;44775;51.564;5.460;2023-05-18T05:27:23;10.73;;;5.38;;
58472;SDS011;44775;51.564;5.460;2023-05-18T05:29:50;18.05;;;5.88;;
58472;SDS011;44775;51.564;5.460;2023-05-18T05:32:15;10.70;;;4.95;;
58472;SDS011;44775;51.564;5.460;2023-05-18T05:34:41;19.05;;;6.38;;
58472;SDS011;44775;51.564;5.460;2023-05-18T05:37:12;18.38;;;5.90;;
58472;SDS011;44775;51.564;5.460;2023-05-18T05:39:37;12.45;;;5.32;;
58472;SDS011;44775;51.564;5.460;2023-05-18T05:42:04;12.07;;;4.97;;
58472;SDS011;44775;51.564;5.460;2023-05-18T05:44:31;13.63;;;6.22;;
58472;SDS011;44775;51.564;5.460;2023-05-18T05:46:56;12.20;;;5.80;;
58472;SDS011;44775;51.564;5.460;2023-05-18T05:49:21;12.13;;;5.70;;
58472;SDS011;44775;51.564;5.460;2023-05-18T05:51:46;11.55;;;5.20;;
58472;SDS011;44775;51.564;5.460;2023-05-18T05:54:13;18.48;;;6.72;;
58472;SDS011;44775;51.564;5.460;2023-05-18T05:56:38;15.68;;;5.75;;
58472;SDS011;44775;51.564;5.460;2023-05-18T05:59:04;11.93;;;5.95;;
58472;SDS011;44775;51.564;5.460;2023-05-18T06:01:29;13.45;;;6.28;;
58472;SDS011;44775;51.564;5.460;2023-05-18T06:03:54;10.35;;;5.22;;
58472;SDS011;44775;51.564;5.460;2023-05-18T06:06:20;9.20;;;5.70;;
58472;SDS011;44775;51.564;5.460;2023-05-18T06:08:45;15.10;;;5.88;;
58472;SDS011;44775;51.564;5.460;2023-05-18T06:11:11;12.65;;;5.03;;
58472;SDS011;44775;51.564;5.460;2023-05-18T06:13:36;13.65;;;5.82;;
58472;SDS011;44775;51.564;5.460;2023-05-18T06:16:02;14.65;;;6.00;;
58472;SDS011;44775;51.564;5.460;2023-05-18T06:18:28;11.55;;;5.15;;
58472;SDS011;44775;51.564;5.460;2023-05-18T06:20:54;11.80;;;5.13;;
58472;SDS011;44775;51.564;5.460;2023-05-18T06:23:19;10.00;;;5.38;;
58472;SDS011;44775;51.564;5.460;2023-05-18T06:25:46;12.43;;;5.57;;
58472;SDS011;44775;51.564;5.460;2023-05-18T06:28:12;13.65;;;5.80;;
58472;SDS011;44775;51.564;5.460;2023-05-18T06:30:38;9.68;;;5.35;;
58472;SDS011;44775;51.564;5.460;2023-05-18T06:33:03;10.70;;;5.63;;
58472;SDS011;44775;51.564;5.460;2023-05-18T06:35:29;10.13;;;5.10;;
58472;SDS011;44775;51.564;5.460;2023-05-18T06:37:54;11.38;;;5.15;;
58472;SDS011;44775;51.564;5.460;2023-05-18T06:40:20;9.95;;;5.03;;
58472;SDS011;44775;51.564;5.460;2023-05-18T06:42:45;9.43;;;4.95;;
58472;SDS011;44775;51.564;5.460;2023-05-18T06:45:10;11.65;;;5.00;;
58472;SDS011;44775;51.564;5.460;2023-05-18T06:47:36;7.40;;;4.30;;
58472;SDS011;44775;51.564;5.460;2023-05-18T06:50:02;16.98;;;5.70;;
58472;SDS011;44775;51.564;5.460;2023-05-18T06:52:28;10.52;;;5.28;;
58472;SDS011;44775;51.564;5.460;2023-05-18T06:54:53;8.63;;;5.15;;
58472;SDS011;44775;51.564;5.460;2023-05-18T06:57:18;13.77;;;5.25;;
58472;SDS011;44775;51.564;5.460;2023-05-18T06:59:44;9.80;;;5.13;;
58472;SDS011;44775;51.564;5.460;2023-05-18T07:02:10;11.55;;;5.43;;
58472;SDS011;44775;51.564;5.460;2023-05-18T07:04:36;11.98;;;5.10;;
58472;SDS011;44775;51.564;5.460;2023-05-18T07:07:01;10.02;;;4.38;;
58472;SDS011;44775;51.564;5.460;2023-05-18T07:09:26;12.38;;;5.43;;
58472;SDS011;44775;51.564;5.460;2023-05-18T07:11:52;7.78;;;4.30;;
58472;SDS011;44775;51.564;5.460;2023-05-18T07:14:18;11.45;;;5.18;;
58472;SDS011;44775;51.564;5.460;2023-05-18T07:16:43;12.13;;;4.30;;
58472;SDS011;44775;51.564;5.460;2023-05-18T07:19:11;10.13;;;5.40;;
58472;SDS011;44775;51.564;5.460;2023-05-18T07:21:36;13.20;;;5.47;;
58472;SDS011;44775;51.564;5.460;2023-05-18T07:24:01;11.85;;;5.03;;
58472;SDS011;44775;51.564;5.460;2023-05-18T07:26:27;13.13;;;5.20;;
58472;SDS011;44775;51.564;5.460;2023-05-18T07:28:53;7.22;;;4.30;;
58472;SDS011;44775;51.564;5.460;2023-05-18T07:31:19;12.27;;;4.75;;
58472;SDS011;44775;51.564;5.460;2023-05-18T07:33:46;12.20;;;5.53;;
58472;SDS011;44775;51.564;5.460;2023-05-18T07:36:14;12.35;;;5.05;;
58472;SDS011;44775;51.564;5.460;2023-05-18T07:38:39;10.48;;;5.15;;
58472;SDS011;44775;51.564;5.460;2023-05-18T07:41:04;13.27;;;5.35;;
58472;SDS011;44775;51.564;5.460;2023-05-18T07:43:30;9.30;;;4.32;;
58472;SDS011;44775;51.564;5.460;2023-05-18T07:45:55;15.50;;;5.75;;
58472;SDS011;44775;51.564;5.460;2023-05-18T07:48:20;10.88;;;5.38;;
58472;SDS011;44775;51.564;5.460;2023-05-18T07:50:46;9.88;;;4.47;;
58472;SDS011;44775;51.564;5.460;2023-05-18T07:53:11;9.23;;;4.13;;
58472;SDS011;44775;51.564;5.460;2023-05-18T07:55:36;8.10;;;3.30;;
58472;SDS011;44775;51.564;5.460;2023-05-18T07:58:02;11.77;;;4.25;;
58472;SDS011;44775;51.564;5.460;2023-05-18T08:00:27;15.50;;;4.45;;
58472;SDS011;44775;51.564;5.460;2023-05-18T08:02:53;8.10;;;3.97;;
58472;SDS011;44775;51.564;5.460;2023-05-18T08:05:18;17.75;;;5.13;;
58472;SDS011;44775;51.564;5.460;2023-05-18T08:07:46;7.38;;;3.58;;
58472;SDS011;44775;51.564;5.460;2023-05-18T08:10:11;11.80;;;4.07;;
58472;SDS011;44775;51.564;5.460;2023-05-18T08:12:37;9.77;;;4.47;;
58472;SDS011;44775;51.564;5.460;2023-05-18T08:15:02;11.98;;;4.60;;
58472;SDS011;44775;51.564;5.460;2023-05-18T08:17:27;9.40;;;3.97;;
58472;SDS011;44775;51.564;5.460;2023-05-18T08:19:53;11.57;;;4.05;;
58472;SDS011;44775;51.564;5.460;2023-05-18T08:22:18;13.18;;;4.22;;
58472;SDS011;44775;51.564;5.460;2023-05-18T08:24:43;10.80;;;4.20;;
58472;SDS011;44775;51.564;5.460;2023-05-18T08:27:09;10.90;;;3.80;;
58472;SDS011;44775;51.564;5.460;2023-05-18T08:29:35;8.05;;;3.10;;
58472;SDS011;44775;51.564;5.460;2023-05-18T08:32:00;8.32;;;3.22;;
58472;SDS011;44775;51.564;5.460;2023-05-18T08:34:26;10.93;;;4.30;;
58472;SDS011;44775;51.564;5.460;2023-05-18T08:36:51;5.45;;;2.33;;
58472;SDS011;44775;51.564;5.460;2023-05-18T08:39:17;7.07;;;2.80;;
58472;SDS011;44775;51.564;5.460;2023-05-18T08:44:44;9.38;;;3.33;;
58472;SDS011;44775;51.564;5.460;2023-05-18T08:47:14;9.60;;;3.17;;
58472;SDS011;44775;51.564;5.460;2023-05-18T08:49:40;5.65;;;2.50;;
58472;SDS011;44775;51.564;5.460;2023-05-18T08:52:06;6.15;;;2.80;;
58472;SDS011;44775;51.564;5.460;2023-05-18T08:54:33;4.65;;;2.20;;
58472;SDS011;44775;51.564;5.460;2023-05-18T08:57:00;4.93;;;2.40;;
58472;SDS011;44775;51.564;5.460;2023-05-18T08:59:32;7.32;;;3.05;;
58472;SDS011;44775;51.564;5.460;2023-05-18T09:02:03;7.57;;;2.50;;
58472;SDS011;44775;51.564;5.460;2023-05-18T09:04:29;9.23;;;4.00;;
58472;SDS011;44775;51.564;5.460;2023-05-18T09:06:58;6.90;;;2.10;;
58472;SDS011;44775;51.564;5.460;2023-05-18T09:09:26;7.45;;;2.88;;
58472;SDS011;44775;51.564;5.460;2023-05-18T09:11:52;10.02;;;3.13;;
58472;SDS011;44775;51.564;5.460;2023-05-18T09:14:22;7.88;;;2.83;;
58472;SDS011;44775;51.564;5.460;2023-05-18T09:16:51;8.43;;;2.97;;
58472;SDS011;44775;51.564;5.460;2023-05-18T09:19:17;9.10;;;3.30;;
58472;SDS011;44775;51.564;5.460;2023-05-18T09:21:42;3.50;;;1.67;;
58472;SDS011;44775;51.564;5.460;2023-05-18T09:24:08;7.78;;;2.50;;
58472;SDS011;44775;51.564;5.460;2023-05-18T09:26:35;6.45;;;2.47;;
58472;SDS011;44775;51.564;5.460;2023-05-18T09:29:02;11.32;;;2.97;;
58472;SDS011;44775;51.564;5.460;2023-05-18T09:31:39;15.00;;;4.18;;
58472;SDS011;44775;51.564;5.460;2023-05-18T09:34:05;13.15;;;4.13;;
58472;SDS011;44775;51.564;5.460;2023-05-18T09:36:30;8.10;;;2.80;;
58472;SDS011;44775;51.564;5.460;2023-05-18T09:38:56;12.07;;;3.33;;
58472;SDS011;44775;51.564;5.460;2023-05-18T09:41:24;13.23;;;3.63;;
58472;SDS011;44775;51.564;5.460;2023-05-18T09:43:50;11.25;;;3.55;;
58472;SDS011;44775;51.564;5.460;2023-05-18T09:46:16;6.43;;;3.00;;
58472;SDS011;44775;51.564;5.460;2023-05-18T09:48:44;9.18;;;3.40;;
58472;SDS011;44775;51.564;5.460;2023-05-18T09:51:10;10.77;;;3.70;;
58472;SDS011;44775;51.564;5.460;2023-05-18T09:53:55;11.50;;;3.35;;
58472;SDS011;44775;51.564;5.460;2023-05-18T09:56:25;9.98;;;3.60;;
58472;SDS011;44775;51.564;5.460;2023-05-18T09:58:51;8.18;;;2.90;;
58472;SDS011;44775;51.564;5.460;2023-05-18T10:01:17;9.32;;;2.92;;
58472;SDS011;44775;51.564;5.460;2023-05-18T10:03:42;9.30;;;3.92;;
58472;SDS011;44775;51.564;5.460;2023-05-18T10:06:10;6.32;;;2.38;;
58472;SDS011;44775;51.564;5.460;2023-05-18T10:08:39;6.95;;;2.78;;
58472;SDS011;44775;51.564;5.460;2023-05-18T10:11:05;11.00;;;3.78;;
58472;SDS011;44775;51.564;5.460;2023-05-18T10:13:32;7.15;;;2.90;;
58472;SDS011;44775;51.564;5.460;2023-05-18T10:15:59;10.15;;;3.55;;
58472;SDS011;44775;51.564;5.460;2023-05-18T10:18:30;8.32;;;3.13;;
58472;SDS011;44775;51.564;5.460;2023-05-18T10:20:58;7.88;;;3.60;;
58472;SDS011;44775;51.564;5.460;2023-05-18T10:23:26;7.78;;;3.08;;
58472;SDS011;44775;51.564;5.460;2023-05-18T10:25:54;8.25;;;3.40;;
58472;SDS011;44775;51.564;5.460;2023-05-18T10:28:22;8.52;;;4.30;;
58472;SDS011;44775;51.564;5.460;2023-05-18T10:30:52;10.23;;;4.00;;
58472;SDS011;44775;51.564;5.460;2023-05-18T10:33:23;13.57;;;3.80;;
58472;SDS011;44775;51.564;5.460;2023-05-18T10:35:50;8.65;;;3.47;;
58472;SDS011;44775;51.564;5.460;2023-05-18T10:38:23;8.93;;;3.65;;
58472;SDS011;44775;51.564;5.460;2023-05-18T10:40:51;15.85;;;4.22;;
58472;SDS011;44775;51.564;5.460;2023-05-18T10:43:19;8.10;;;3.38;;
58472;SDS011;44775;51.564;5.460;2023-05-18T10:45:46;4.53;;;2.70;;
58472;SDS011;44775;51.564;5.460;2023-05-18T10:48:15;13.35;;;4.55;;
58472;SDS011;44775;51.564;5.460;2023-05-18T10:50:41;6.45;;;3.58;;
58472;SDS011;44775;51.564;5.460;2023-05-18T10:53:07;8.23;;;3.63;;
58472;SDS011;44775;51.564;5.460;2023-05-18T10:55:34;8.73;;;4.80;;
58472;SDS011;44775;51.564;5.460;2023-05-18T10:58:03;6.50;;;2.75;;
58472;SDS011;44775;51.564;5.460;2023-05-18T11:00:34;8.30;;;4.47;;
58472;SDS011;44775;51.564;5.460;2023-05-18T11:03:02;10.60;;;3.92;;
58472;SDS011;44775;51.564;5.460;2023-05-18T11:05:32;12.63;;;4.60;;
58472;SDS011;44775;51.564;5.460;2023-05-18T11:08:01;10.18;;;4.50;;
58472;SDS011;44775;51.564;5.460;2023-05-18T11:10:39;10.35;;;4.13;;
58472;SDS011;44775;51.564;5.460;2023-05-18T11:13:06;7.70;;;3.17;;
58472;SDS011;44775;51.564;5.460;2023-05-18T11:18:18;7.75;;;4.38;;
58472;SDS011;44775;51.564;5.460;2023-05-18T11:20:44;9.48;;;3.28;;
58472;SDS011;44775;51.564;5.460;2023-05-18T11:23:10;8.80;;;4.20;;
58472;SDS011;44775;51.564;5.460;2023-05-18T11:25:41;6.55;;;3.78;;
58472;SDS011;44775;51.564;5.460;2023-05-18T11:28:08;7.78;;;4.38;;
58472;SDS011;44775;51.564;5.460;2023-05-18T11:38:54;9.05;;;3.53;;
58472;SDS011;44775;51.564;5.460;2023-05-18T11:41:34;7.40;;;3.30;;
58472;SDS011;44775;51.564;5.460;2023-05-18T11:44:03;8.85;;;3.42;;
58472;SDS011;44775;51.564;5.460;2023-05-18T11:46:34;5.78;;;3.60;;
58472;SDS011;44775;51.564;5.460;2023-05-18T11:49:03;9.30;;;4.00;;
58472;SDS011;44775;51.564;5.460;2023-05-18T11:51:31;6.80;;;3.15;;
58472;SDS011;44775;51.564;5.460;2023-05-18T11:53:57;7.43;;;4.40;;
58472;SDS011;44775;51.564;5.460;2023-05-18T11:56:24;8.18;;;3.25;;
58472;SDS011;44775;51.564;5.460;2023-05-18T12:01:40;5.63;;;2.78;;
58472;SDS011;44775;51.564;5.460;2023-05-18T12:04:06;6.93;;;2.72;;
58472;SDS011;44775;51.564;5.460;2023-05-18T12:06:32;7.07;;;3.35;;
58472;SDS011;44775;51.564;5.460;2023-05-18T12:08:58;8.27;;;3.45;;
58472;SDS011;44775;51.564;5.460;2023-05-18T12:11:24;5.95;;;2.70;;
58472;SDS011;44775;51.564;5.460;2023-05-18T12:13:52;5.70;;;3.10;;
58472;SDS011;44775;51.564;5.460;2023-05-18T12:18:50;13.43;;;4.77;;
58472;SDS011;44775;51.564;5.460;2023-05-18T12:21:21;8.35;;;3.55;;
58472;SDS011;44775;51.564;5.460;2023-05-18T12:23:47;4.75;;;2.75;;
58472;SDS011;44775;51.564;5.460;2023-05-18T12:26:12;7.22;;;2.80;;
58472;SDS011;44775;51.564;5.460;2023-05-18T12:28:38;5.43;;;2.95;;
58472;SDS011;44775;51.564;5.460;2023-05-18T12:31:04;5.80;;;2.78;;
58472;SDS011;44775;51.564;5.460;2023-05-18T12:33:32;5.07;;;2.40;;
58472;SDS011;44775;51.564;5.460;2023-05-18T12:35:58;10.73;;;3.50;;
58472;SDS011;44775;51.564;5.460;2023-05-18T12:38:24;5.82;;;3.20;;
58472;SDS011;44775;51.564;5.460;2023-05-18T12:40:51;12.93;;;4.43;;
58472;SDS011;44775;51.564;5.460;2023-05-18T12:43:18;9.80;;;3.95;;
58472;SDS011;44775;51.564;5.460;2023-05-18T12:45:44;5.13;;;2.20;;
58472;SDS011;44775;51.564;5.460;2023-05-18T12:48:09;12.98;;;4.60;;
58472;SDS011;44775;51.564;5.460;2023-05-18T12:50:44;13.43;;;3.63;;
58472;SDS011;44775;51.564;5.460;2023-05-18T12:53:10;11.75;;;4.15;;
58472;SDS011;44775;51.564;5.460;2023-05-18T12:55:35;9.63;;;3.30;;
58472;SDS011;44775;51.564;5.460;2023-05-18T13:03:04;4.97;;;1.90;;
58472;SDS011;44775;51.564;5.460;2023-05-18T13:05:33;6.18;;;3.25;;
58472;SDS011;44775;51.564;5.460;2023-05-18T13:07:59;5.72;;;2.65;;
58472;SDS011;44775;51.564;5.460;2023-05-18T13:10:24;6.13;;;2.55;;
58472;SDS011;44775;51.564;5.460;2023-05-18T13:12:54;9.15;;;4.35;;
58472;SDS011;44775;51.564;5.460;2023-05-18T13:15:25;5.80;;;2.45;;
58472;SDS011;44775;51.564;5.460;2023-05-18T13:20:20;2.63;;;1.58;;
58472;SDS011;44775;51.564;5.460;2023-05-18T13:22:47;5.72;;;2.58;;
58472;SDS011;44775;51.564;5.460;2023-05-18T13:25:14;6.85;;;3.47;;
58472;SDS011;44775;51.564;5.460;2023-05-18T13:27:40;6.25;;;2.83;;
58472;SDS011;44775;51.564;5.460;2023-05-18T13:30:05;10.82;;;3.55;;
58472;SDS011;44775;51.564;5.460;2023-05-18T13:32:32;5.65;;;2.72;;
58472;SDS011;44775;51.564;5.460;2023-05-18T13:34:57;8.98;;;3.30;;
58472;SDS011;44775;51.564;5.460;2023-05-18T13:37:23;6.60;;;2.80;;
58472;SDS011;44775;51.564;5.460;2023-05-18T13:39:48;8.38;;;3.50;;
58472;SDS011;44775;51.564;5.460;2023-05-18T13:42:14;7.60;;;2.70;;
58472;SDS011;44775;51.564;5.460;2023-05-18T13:44:39;3.60;;;2.10;;
58472;SDS011;44775;51.564;5.460;2023-05-18T13:47:04;7.05;;;2.80;;
58472;SDS011;44775;51.564;5.460;2023-05-18T13:49:30;4.78;;;1.65;;
58472;SDS011;44775;51.564;5.460;2023-05-18T13:51:55;2.70;;;1.60;;
58472;SDS011;44775;51.564;5.460;2023-05-18T13:54:23;3.80;;;1.90;;
58472;SDS011;44775;51.564;5.460;2023-05-18T13:56:48;7.00;;;3.28;;
58472;SDS011;44775;51.564;5.460;2023-05-18T13:59:13;9.82;;;3.65;;
58472;SDS011;44775;51.564;5.460;2023-05-18T14:01:40;7.15;;;2.85;;
58472;SDS011;44775;51.564;5.460;2023-05-18T14:04:06;10.25;;;3.28;;
58472;SDS011;44775;51.564;5.460;2023-05-18T14:06:31;10.68;;;4.32;;
58472;SDS011;44775;51.564;5.460;2023-05-18T14:08:57;7.40;;;3.08;;
58472;SDS011;44775;51.564;5.460;2023-05-18T14:11:22;12.60;;;3.47;;
58472;SDS011;44775;51.564;5.460;2023-05-18T14:13:47;9.80;;;3.13;;
58472;SDS011;44775;51.564;5.460;2023-05-18T14:16:14;8.00;;;4.03;;
58472;SDS011;44775;51.564;5.460;2023-05-18T14:18:39;6.50;;;3.00;;
58472;SDS011;44775;51.564;5.460;2023-05-18T14:21:04;8.50;;;4.07;;
58472;SDS011;44775;51.564;5.460;2023-05-18T14:23:30;5.47;;;2.78;;
58472;SDS011;44775;51.564;5.460;2023-05-18T14:25:55;7.57;;;3.58;;
58472;SDS011;44775;51.564;5.460;2023-05-18T14:28:20;9.02;;;3.97;;
58472;SDS011;44775;51.564;5.460;2023-05-18T14:30:45;10.00;;;4.00;;
58472;SDS011;44775;51.564;5.460;2023-05-18T14:33:11;9.65;;;3.75;;
58472;SDS011;44775;51.564;5.460;2023-05-18T14:35:36;7.85;;;3.30;;
58472;SDS011;44775;51.564;5.460;2023-05-18T14:38:01;3.22;;;1.98;;
58472;SDS011;44775;51.564;5.460;2023-05-18T14:40:27;11.02;;;4.10;;
58472;SDS011;44775;51.564;5.460;2023-05-18T14:42:53;7.45;;;2.92;;
58472;SDS011;44775;51.564;5.460;2023-05-18T14:45:18;5.70;;;2.15;;
58472;SDS011;44775;51.564;5.460;2023-05-18T14:47:44;5.78;;;3.00;;
58472;SDS011;44775;51.564;5.460;2023-05-18T14:50:09;10.57;;;3.88;;
58472;SDS011;44775;51.564;5.460;2023-05-18T14:52:35;2.75;;;1.65;;
58472;SDS011;44775;51.564;5.460;2023-05-18T14:55:00;11.05;;;3.60;;
58472;SDS011;44775;51.564;5.460;2023-05-18T14:57:25;5.05;;;2.70;;
58472;SDS011;44775;51.564;5.460;2023-05-18T14:59:50;6.65;;;2.83;;
58472;SDS011;44775;51.564;5.460;2023-05-18T15:02:16;10.20;;;3.50;;
58472;SDS011;44775;51.564;5.460;2023-05-18T15:04:41;4.82;;;2.88;;
58472;SDS011;44775;51.564;5.460;2023-05-18T15:07:06;4.20;;;2.30;;
58472;SDS011;44775;51.564;5.460;2023-05-18T15:09:32;9.32;;;3.92;;
58472;SDS011;44775;51.564;5.460;2023-05-18T15:11:57;5.47;;;3.03;;
58472;SDS011;44775;51.564;5.460;2023-05-18T15:14:23;9.30;;;3.50;;
58472;SDS011;44775;51.564;5.460;2023-05-18T15:16:48;10.23;;;3.75;;
58472;SDS011;44775;51.564;5.460;2023-05-18T15:19:13;4.95;;;2.28;;
58472;SDS011;44775;51.564;5.460;2023-05-18T15:21:38;5.97;;;2.58;;